createdAt,value
2018-10-21T00:00:19.636Z,22.97
2018-10-21T00:01:19.666Z,22.94
2018-10-21T00:02:19.754Z,22.99
2018-10-21T00:03:19.715Z,22.91
2018-10-21T00:04:19.740Z,22.99
2018-10-21T00:05:19.760Z,23.03
2018-10-21T00:06:19.777Z,23.00
2018-10-21T00:07:19.806Z,23.01
2018-10-21T00:08:19.830Z,22.96
2018-10-21T00:09:19.854Z,23.01
2018-10-21T00:10:19.884Z,22.99
2018-10-21T00:11:19.903Z,22.96
2018-10-21T00:12:19.923Z,23.00
2018-10-21T00:13:19.950Z,22.96
2018-10-21T00:14:19.973Z,23.06
2018-10-21T00:15:20.027Z,23.00
2018-10-21T00:16:20.017Z,22.97
2018-10-21T00:17:20.044Z,23.03
2018-10-21T00:18:20.063Z,23.00
2018-10-21T00:19:20.090Z,22.99
2018-10-21T00:20:20.117Z,22.94
2018-10-21T00:21:20.144Z,22.97
2018-10-21T00:22:20.163Z,23.00
2018-10-21T00:23:20.182Z,23.01
2018-10-21T00:24:20.213Z,22.97
2018-10-21T00:25:20.238Z,23.00
2018-10-21T00:26:20.256Z,22.96
2018-10-21T00:27:20.280Z,23.01
2018-10-21T00:28:20.299Z,23.06
2018-10-21T00:29:20.323Z,22.97
2018-10-21T00:30:20.351Z,22.99
2018-10-21T00:31:20.377Z,23.03
2018-10-21T00:32:20.398Z,22.97
2018-10-21T00:33:20.420Z,23.03
2018-10-21T00:34:20.445Z,22.97
2018-10-21T00:35:20.475Z,23.01
2018-10-21T00:36:20.498Z,22.96
2018-10-21T00:37:20.520Z,23.01
2018-10-21T00:38:20.538Z,23.00
2018-10-21T00:39:20.562Z,22.96
2018-10-21T00:40:20.589Z,22.99
2018-10-21T00:41:20.610Z,22.94
2018-10-21T00:42:20.638Z,23.01
2018-10-21T00:43:20.663Z,23.06
2018-10-21T00:44:20.685Z,22.97
2018-10-21T00:45:20.705Z,23.03
2018-10-21T00:46:20.737Z,22.99
2018-10-21T00:47:20.760Z,22.94
2018-10-21T00:48:20.778Z,23.03
2018-10-21T00:49:20.802Z,22.99
2018-10-21T00:50:20.826Z,23.01
2018-10-21T00:51:20.847Z,23.00
2018-10-21T00:52:20.874Z,23.00
2018-10-21T00:53:20.898Z,22.99
2018-10-21T00:54:20.921Z,22.96
2018-10-21T00:55:20.946Z,22.99
2018-10-21T00:56:20.970Z,23.00
2018-10-21T00:57:20.996Z,22.96
2018-10-21T00:58:21.017Z,22.99
2018-10-21T00:59:21.042Z,23.03
2018-10-21T01:00:21.062Z,23.01
2018-10-21T01:01:21.083Z,23.04
2018-10-21T01:02:21.114Z,23.01
2018-10-21T01:03:21.137Z,22.99
2018-10-21T01:04:21.156Z,23.03
2018-10-21T01:05:21.180Z,22.99
2018-10-21T01:06:21.202Z,22.96
2018-10-21T01:07:21.229Z,22.96
2018-10-21T01:08:21.254Z,23.00
2018-10-21T01:09:21.278Z,23.06
2018-10-21T01:10:21.305Z,22.94
2018-10-21T01:11:21.322Z,23.01
2018-10-21T01:12:21.351Z,23.00
2018-10-21T01:13:21.383Z,23.01
2018-10-21T01:14:21.395Z,22.99
2018-10-21T01:15:21.425Z,22.96
2018-10-21T01:16:21.439Z,22.99
2018-10-21T01:17:21.464Z,22.96
2018-10-21T01:18:21.492Z,22.96
2018-10-21T01:19:21.516Z,23.03
2018-10-21T01:20:21.536Z,22.94
2018-10-21T01:21:21.559Z,23.00
2018-10-21T01:22:21.584Z,23.00
2018-10-21T01:23:21.608Z,23.00
2018-10-21T01:24:21.636Z,23.00
2018-10-21T01:25:21.659Z,22.96
2018-10-21T01:26:21.676Z,23.07
2018-10-21T01:27:21.701Z,22.97
2018-10-21T01:28:21.728Z,23.03
2018-10-21T01:29:21.752Z,23.01
2018-10-21T01:30:21.779Z,23.00
2018-10-21T01:31:21.801Z,23.03
2018-10-21T01:32:21.821Z,23.01
2018-10-21T01:33:21.845Z,23.00
2018-10-21T01:34:21.875Z,23.00
2018-10-21T01:35:21.895Z,23.01
2018-10-21T01:36:22.221Z,23.04
2018-10-21T01:37:21.996Z,23.00
2018-10-21T01:38:22.047Z,22.97
2018-10-21T01:39:21.988Z,23.01
2018-10-21T01:40:22.017Z,22.99
2018-10-21T01:41:22.048Z,23.00
2018-10-21T01:42:22.058Z,22.97
2018-10-21T01:43:22.084Z,23.03
2018-10-21T01:44:22.114Z,23.01
2018-10-21T01:45:22.132Z,23.03
2018-10-21T01:46:22.159Z,23.06
2018-10-21T01:47:22.181Z,22.97
2018-10-21T01:48:22.200Z,23.07
2018-10-21T01:49:22.226Z,23.00
2018-10-21T01:50:22.250Z,23.06
2018-10-21T01:51:22.274Z,23.07
2018-10-21T01:52:22.336Z,23.01
2018-10-21T01:53:22.317Z,23.07
2018-10-21T01:54:22.343Z,23.07
2018-10-21T01:55:22.367Z,22.99
2018-10-21T01:56:22.396Z,23.09
2018-10-21T01:57:22.417Z,22.96
2018-10-21T01:58:22.439Z,23.03
2018-10-21T01:59:22.460Z,23.00
2018-10-21T02:00:22.490Z,23.07
2018-10-21T02:01:22.513Z,23.01
2018-10-21T02:02:22.538Z,23.01
2018-10-21T02:03:22.562Z,23.11
2018-10-21T02:04:22.582Z,23.00
2018-10-21T02:05:22.607Z,23.03
2018-10-21T02:06:22.628Z,23.04
2018-10-21T02:07:22.659Z,23.06
2018-10-21T02:08:22.679Z,22.97
2018-10-21T02:09:22.707Z,23.04
2018-10-21T02:10:22.724Z,23.01
2018-10-21T02:11:22.756Z,23.04
2018-10-21T02:12:22.768Z,23.16
2018-10-21T02:13:22.791Z,23.15
2018-10-21T02:14:22.826Z,23.01
2018-10-21T02:15:22.848Z,23.07
2018-10-21T02:16:22.866Z,22.97
2018-10-21T02:17:22.893Z,23.06
2018-10-21T02:18:22.919Z,23.00
2018-10-21T02:19:22.934Z,23.03
2018-10-21T02:20:22.964Z,23.06
2018-10-21T02:21:22.988Z,23.01
2018-10-21T02:22:23.005Z,23.03
2018-10-21T02:23:23.031Z,22.99
2018-10-21T02:24:23.059Z,23.07
2018-10-21T02:25:23.085Z,23.11
2018-10-21T02:26:23.181Z,23.16
2018-10-21T02:27:23.134Z,23.07
2018-10-21T02:28:23.151Z,23.07
2018-10-21T02:29:23.175Z,22.99
2018-10-21T02:30:23.201Z,23.04
2018-10-21T02:31:23.225Z,23.01
2018-10-21T02:32:23.246Z,23.16
2018-10-21T02:33:23.429Z,23.09
2018-10-21T02:34:23.292Z,23.19
2018-10-21T02:35:23.318Z,23.06
2018-10-21T02:36:23.346Z,23.06
2018-10-21T02:37:23.367Z,23.06
2018-10-21T02:38:23.392Z,23.01
2018-10-21T02:39:23.411Z,23.07
2018-10-21T02:40:23.442Z,23.09
2018-10-21T02:41:23.466Z,23.03
2018-10-21T02:42:23.486Z,23.00
2018-10-21T02:43:23.511Z,23.06
2018-10-21T02:44:23.531Z,23.12
2018-10-21T02:45:23.551Z,23.04
2018-10-21T02:46:23.589Z,23.01
2018-10-21T02:47:23.611Z,22.99
2018-10-21T02:48:23.625Z,23.03
2018-10-21T02:49:23.649Z,23.06
2018-10-21T02:50:23.677Z,23.06
2018-10-21T02:51:23.700Z,23.06
2018-10-21T02:52:23.728Z,23.16
2018-10-21T02:53:23.747Z,23.00
2018-10-21T02:54:23.769Z,23.16
2018-10-21T02:55:23.791Z,23.04
2018-10-21T02:56:23.819Z,23.06
2018-10-21T02:57:23.846Z,23.09
2018-10-21T02:58:23.870Z,23.16
2018-10-21T02:59:23.888Z,23.03
2018-10-21T03:00:23.917Z,23.19
2018-10-21T03:01:23.942Z,23.06
2018-10-21T03:02:23.961Z,23.18
2018-10-21T03:03:23.981Z,23.04
2018-10-21T03:04:24.009Z,23.01
2018-10-21T03:05:24.031Z,23.04
2018-10-21T03:06:24.086Z,23.18
2018-10-21T03:07:24.082Z,23.18
2018-10-21T03:08:24.105Z,23.09
2018-10-21T03:09:24.126Z,23.18
2018-10-21T03:10:24.150Z,23.04
2018-10-21T03:11:24.178Z,23.06
2018-10-21T03:12:24.199Z,23.07
2018-10-21T03:13:24.224Z,23.04
2018-10-21T03:14:24.247Z,23.09
2018-10-21T03:15:24.276Z,23.16
2018-10-21T03:16:24.290Z,23.03
2018-10-21T03:17:24.318Z,23.15
2018-10-21T03:18:24.408Z,23.15
2018-10-21T03:19:24.361Z,23.16
2018-10-21T03:20:24.392Z,23.04
2018-10-21T03:21:24.409Z,23.16
2018-10-21T03:22:24.434Z,23.15
2018-10-21T03:23:24.465Z,23.18
2018-10-21T03:24:24.484Z,23.18
2018-10-21T03:25:24.506Z,23.16
2018-10-21T03:26:24.539Z,23.16
2018-10-21T03:27:24.559Z,23.15
2018-10-21T03:28:24.584Z,23.12
2018-10-21T03:29:24.607Z,23.14
2018-10-21T03:30:24.629Z,23.15
2018-10-21T03:31:24.653Z,23.15
2018-10-21T03:32:24.674Z,23.03
2018-10-21T03:33:24.859Z,23.04
2018-10-21T03:34:24.727Z,23.16
2018-10-21T03:35:24.746Z,23.18
2018-10-21T03:36:24.769Z,23.04
2018-10-21T03:37:24.796Z,23.15
2018-10-21T03:38:24.813Z,23.14
2018-10-21T03:39:24.842Z,23.01
2018-10-21T03:40:24.868Z,23.09
2018-10-21T03:41:24.887Z,23.09
2018-10-21T03:42:24.909Z,23.16
2018-10-21T03:43:24.939Z,23.15
2018-10-21T03:44:24.965Z,23.01
2018-10-21T03:45:24.985Z,23.09
2018-10-21T03:46:25.010Z,23.18
2018-10-21T03:47:25.032Z,23.06
2018-10-21T03:48:25.053Z,23.14
2018-10-21T03:49:25.078Z,23.06
2018-10-21T03:50:25.104Z,23.06
2018-10-21T03:51:25.122Z,23.14
2018-10-21T03:52:25.148Z,23.04
2018-10-21T03:53:25.172Z,23.00
2018-10-21T03:54:25.194Z,23.09
2018-10-21T03:55:25.227Z,23.04
2018-10-21T03:56:25.257Z,23.16
2018-10-21T03:57:25.268Z,23.07
2018-10-21T03:58:25.291Z,23.04
2018-10-21T03:59:25.326Z,23.07
2018-10-21T04:00:25.343Z,23.06
2018-10-21T04:01:25.365Z,23.21
2018-10-21T04:02:25.392Z,23.06
2018-10-21T04:03:25.408Z,23.09
2018-10-21T04:04:25.433Z,23.16
2018-10-21T04:05:25.464Z,23.01
2018-10-21T04:06:25.485Z,23.11
2018-10-21T04:07:25.510Z,23.16
2018-10-21T04:08:25.548Z,23.18
2018-10-21T04:09:25.551Z,23.19
2018-10-21T04:10:25.576Z,23.04
2018-10-21T04:11:25.604Z,23.11
2018-10-21T04:12:25.627Z,23.14
2018-10-21T04:13:25.652Z,23.14
2018-10-21T04:14:25.682Z,23.16
2018-10-21T04:15:25.694Z,23.12
2018-10-21T04:16:25.721Z,23.06
2018-10-21T04:17:25.743Z,23.19
2018-10-21T04:18:25.766Z,23.07
2018-10-21T04:19:25.798Z,23.16
2018-10-21T04:20:25.823Z,23.15
2018-10-21T04:21:25.843Z,23.16
2018-10-21T04:22:25.859Z,23.12
2018-10-21T04:23:25.887Z,23.14
2018-10-21T04:24:25.916Z,22.99
2018-10-21T04:25:25.936Z,23.07
2018-10-21T04:26:25.961Z,23.01
2018-10-21T04:27:25.994Z,23.07
2018-10-21T04:28:26.005Z,23.21
2018-10-21T04:29:26.036Z,23.19
2018-10-21T04:30:26.058Z,23.18
2018-10-21T04:31:26.074Z,23.04
2018-10-21T04:32:26.099Z,23.11
2018-10-21T04:33:26.128Z,23.16
2018-10-21T04:34:26.145Z,23.06
2018-10-21T04:35:26.249Z,23.06
2018-10-21T04:36:26.199Z,23.03
2018-10-21T04:37:26.217Z,23.07
2018-10-21T04:38:26.242Z,23.06
2018-10-21T04:39:26.273Z,23.04
2018-10-21T04:40:26.296Z,23.04
2018-10-21T04:41:26.314Z,23.06
2018-10-21T04:42:26.343Z,23.01
2018-10-21T04:43:26.361Z,23.09
2018-10-21T04:44:26.382Z,23.09
2018-10-21T04:45:26.414Z,23.04
2018-10-21T04:46:26.448Z,23.04
2018-10-21T04:47:26.455Z,23.14
2018-10-21T04:48:26.482Z,23.06
2018-10-21T04:49:26.505Z,23.06
2018-10-21T04:50:26.535Z,23.04
2018-10-21T04:51:26.556Z,23.03
2018-10-21T04:52:26.580Z,23.04
2018-10-21T04:53:26.599Z,23.15
2018-10-21T04:54:26.621Z,23.14
2018-10-21T04:55:26.653Z,23.06
2018-10-21T04:56:26.674Z,23.04
2018-10-21T04:57:26.698Z,23.09
2018-10-21T04:58:26.723Z,23.04
2018-10-21T04:59:26.742Z,23.16
2018-10-21T05:00:26.768Z,23.09
2018-10-21T05:01:26.795Z,23.06
2018-10-21T05:02:26.817Z,23.14
2018-10-21T05:03:26.836Z,23.04
2018-10-21T05:04:26.867Z,23.01
2018-10-21T05:05:26.889Z,23.04
2018-10-21T05:06:26.906Z,23.04
2018-10-21T05:07:26.962Z,23.07
2018-10-21T05:08:26.960Z,23.14
2018-10-21T05:09:26.979Z,23.09
2018-10-21T05:10:27.002Z,23.11
2018-10-21T05:11:27.034Z,23.03
2018-10-21T05:12:27.057Z,23.14
2018-10-21T05:13:27.076Z,23.01
2018-10-21T05:14:27.100Z,23.12
2018-10-21T05:15:27.127Z,23.06
2018-10-21T05:16:27.227Z,23.06
2018-10-21T05:17:27.173Z,23.21
2018-10-21T05:18:27.202Z,23.01
2018-10-21T05:19:27.217Z,23.04
2018-10-21T05:20:27.242Z,23.01
2018-10-21T05:21:27.263Z,23.06
2018-10-21T05:22:27.288Z,23.14
2018-10-21T05:23:27.316Z,23.16
2018-10-21T05:24:27.340Z,23.04
2018-10-21T05:25:27.362Z,23.14
2018-10-21T05:26:27.386Z,23.14
2018-10-21T05:27:27.412Z,23.15
2018-10-21T05:28:27.435Z,23.16
2018-10-21T05:29:27.462Z,23.12
2018-10-21T05:30:27.484Z,23.04
2018-10-21T05:31:27.505Z,23.21
2018-10-21T05:32:27.528Z,23.01
2018-10-21T05:33:27.552Z,23.16
2018-10-21T05:34:27.576Z,23.04
2018-10-21T05:35:27.599Z,23.11
2018-10-21T05:36:27.620Z,23.15
2018-10-21T05:37:27.642Z,23.04
2018-10-21T05:38:27.669Z,23.07
2018-10-21T05:39:27.703Z,23.16
2018-10-21T05:40:27.774Z,23.18
2018-10-21T05:41:27.740Z,23.18
2018-10-21T05:42:27.767Z,23.11
2018-10-21T05:43:27.790Z,23.11
2018-10-21T05:44:27.815Z,23.11
2018-10-21T05:45:27.842Z,23.18
2018-10-21T05:46:27.866Z,23.16
2018-10-21T05:47:27.885Z,23.15
2018-10-21T05:48:27.910Z,23.18
2018-10-21T05:49:27.939Z,23.18
2018-10-21T05:50:27.960Z,23.22
2018-10-21T05:51:27.981Z,23.16
2018-10-21T05:52:28.005Z,23.16
2018-10-21T05:53:28.027Z,23.09
2018-10-21T05:54:28.051Z,23.14
2018-10-21T05:55:28.077Z,23.22
2018-10-21T05:56:28.108Z,23.11
2018-10-21T05:57:28.123Z,23.12
2018-10-21T05:58:28.203Z,23.18
2018-10-21T05:59:28.175Z,23.11
2018-10-21T06:00:28.199Z,23.16
2018-10-21T06:01:28.218Z,23.12
2018-10-21T06:02:28.242Z,23.14
2018-10-21T06:03:28.265Z,23.09
2018-10-21T06:04:28.306Z,23.09
2018-10-21T06:05:28.314Z,23.15
2018-10-21T06:06:28.337Z,23.11
2018-10-21T06:07:28.358Z,23.15
2018-10-21T06:08:28.381Z,23.11
2018-10-21T06:09:28.412Z,23.16
2018-10-21T06:10:28.431Z,23.11
2018-10-21T06:11:28.459Z,23.19
2018-10-21T06:12:28.482Z,23.15
2018-10-21T06:13:28.497Z,23.15
2018-10-21T06:14:28.527Z,23.16
2018-10-21T06:15:28.553Z,23.18
2018-10-21T06:16:28.577Z,23.18
2018-10-21T06:17:28.600Z,23.11
2018-10-21T06:18:28.629Z,23.12
2018-10-21T06:19:28.646Z,23.12
2018-10-21T06:20:28.668Z,23.21
2018-10-21T06:21:28.692Z,23.22
2018-10-21T06:22:28.716Z,23.18
2018-10-21T06:23:28.746Z,23.15
2018-10-21T06:24:28.768Z,23.16
2018-10-21T06:25:28.790Z,23.25
2018-10-21T06:26:28.812Z,23.21
2018-10-21T06:27:28.882Z,23.19
2018-10-21T06:28:28.859Z,23.26
2018-10-21T06:29:28.887Z,23.22
2018-10-21T06:30:28.912Z,23.16
2018-10-21T06:31:28.935Z,23.26
2018-10-21T06:32:28.955Z,23.19
2018-10-21T06:33:28.995Z,23.21
2018-10-21T06:34:29.000Z,23.22
2018-10-21T06:35:29.028Z,23.19
2018-10-21T06:36:29.059Z,23.18
2018-10-21T06:37:29.072Z,23.22
2018-10-21T06:38:29.103Z,23.25
2018-10-21T06:39:29.129Z,23.22
2018-10-21T06:40:29.148Z,23.31
2018-10-21T06:41:29.177Z,23.23
2018-10-21T06:42:29.196Z,23.25
2018-10-21T06:43:29.214Z,23.25
2018-10-21T06:44:29.246Z,23.31
2018-10-21T06:45:29.295Z,23.23
2018-10-21T06:46:29.290Z,23.26
2018-10-21T06:47:29.310Z,23.26
2018-10-21T06:48:29.401Z,23.23
2018-10-21T06:49:29.358Z,23.32
2018-10-21T06:50:29.384Z,23.31
2018-10-21T06:51:29.413Z,23.29
2018-10-21T06:52:29.436Z,23.23
2018-10-21T06:53:29.455Z,23.37
2018-10-21T06:54:29.479Z,23.32
2018-10-21T06:55:29.507Z,23.26
2018-10-21T06:56:29.623Z,23.31
2018-10-21T06:57:29.755Z,23.37
2018-10-21T06:58:29.575Z,23.29
2018-10-21T06:59:29.596Z,23.26
2018-10-21T07:00:29.620Z,23.35
2018-10-21T07:01:29.646Z,23.26
2018-10-21T07:02:29.675Z,23.35
2018-10-21T07:03:29.693Z,23.35
2018-10-21T07:04:29.727Z,23.26
2018-10-21T07:05:29.741Z,23.31
2018-10-21T07:06:29.764Z,23.34
2018-10-21T07:07:29.792Z,23.38
2018-10-21T07:08:29.814Z,23.32
2018-10-21T07:09:29.837Z,23.35
2018-10-21T07:10:29.858Z,23.38
2018-10-21T07:11:29.889Z,23.38
2018-10-21T07:12:29.914Z,23.37
2018-10-21T07:13:29.932Z,23.41
2018-10-21T07:14:29.959Z,23.34
2018-10-21T07:15:30.035Z,23.38
2018-10-21T07:16:30.146Z,23.39
2018-10-21T07:17:30.030Z,23.34
2018-10-21T07:18:30.054Z,23.37
2018-10-21T07:19:30.073Z,23.41
2018-10-21T07:20:30.098Z,23.39
2018-10-21T07:21:30.127Z,23.41
2018-10-21T07:22:30.147Z,23.37
2018-10-21T07:23:30.175Z,23.34
2018-10-21T07:24:30.197Z,23.39
2018-10-21T07:25:30.215Z,23.39
2018-10-21T07:26:30.244Z,23.39
2018-10-21T07:27:30.271Z,23.44
2018-10-21T07:28:30.305Z,23.41
2018-10-21T07:29:30.319Z,23.45
2018-10-21T07:30:30.342Z,23.45
2018-10-21T07:31:30.366Z,23.41
2018-10-21T07:32:30.388Z,23.41
2018-10-21T07:33:30.412Z,23.42
2018-10-21T07:34:30.438Z,23.44
2018-10-21T07:35:30.456Z,23.41
2018-10-21T07:36:30.521Z,23.42
2018-10-21T07:37:30.506Z,23.49
2018-10-21T07:38:30.530Z,23.42
2018-10-21T07:39:30.563Z,23.45
2018-10-21T07:40:30.583Z,23.41
2018-10-21T07:41:30.601Z,23.53
2018-10-21T07:42:30.629Z,23.42
2018-10-21T07:43:30.652Z,23.39
2018-10-21T07:44:30.681Z,23.39
2018-10-21T07:45:30.701Z,23.54
2018-10-21T07:46:30.723Z,23.52
2018-10-21T07:47:30.743Z,23.45
2018-10-21T07:48:30.770Z,23.59
2018-10-21T07:49:30.797Z,23.45
2018-10-21T07:50:30.820Z,23.54
2018-10-21T07:51:30.849Z,23.50
2018-10-21T07:52:30.865Z,23.47
2018-10-21T07:53:30.888Z,23.52
2018-10-21T07:54:30.910Z,23.53
2018-10-21T07:55:30.973Z,23.59
2018-10-21T07:56:30.968Z,23.60
2018-10-21T07:57:30.982Z,23.52
2018-10-21T07:58:31.008Z,23.60
2018-10-21T07:59:31.036Z,23.56
2018-10-21T08:00:31.069Z,23.62
2018-10-21T08:01:31.160Z,23.62
2018-10-21T08:02:31.112Z,23.63
2018-10-21T08:03:31.134Z,23.67
2018-10-21T08:04:31.158Z,23.67
2018-10-21T08:05:31.179Z,23.67
2018-10-21T08:06:31.206Z,23.64
2018-10-21T08:07:31.226Z,23.68
2018-10-21T08:08:31.271Z,23.64
2018-10-21T08:09:31.276Z,23.68
2018-10-21T08:10:31.298Z,23.67
2018-10-21T08:11:31.334Z,23.67
2018-10-21T08:12:31.352Z,23.64
2018-10-21T08:13:31.372Z,23.68
2018-10-21T08:14:31.419Z,23.62
2018-10-21T08:15:31.424Z,23.63
2018-10-21T08:16:31.448Z,23.74
2018-10-21T08:17:31.472Z,23.64
2018-10-21T08:18:31.494Z,23.71
2018-10-21T08:19:31.512Z,23.74
2018-10-21T08:20:31.536Z,23.68
2018-10-21T08:21:31.575Z,23.74
2018-10-21T08:22:31.592Z,23.64
2018-10-21T08:23:31.611Z,23.71
2018-10-21T08:24:31.636Z,23.77
2018-10-21T08:25:31.656Z,23.69
2018-10-21T08:26:31.684Z,23.71
2018-10-21T08:27:31.710Z,23.69
2018-10-21T08:28:31.733Z,23.74
2018-10-21T08:29:31.756Z,23.68
2018-10-21T08:30:31.780Z,23.77
2018-10-21T08:31:31.801Z,23.67
2018-10-21T08:32:31.827Z,23.77
2018-10-21T08:33:31.860Z,23.72
2018-10-21T08:34:31.875Z,23.64
2018-10-21T08:35:31.902Z,23.69
2018-10-21T08:36:31.928Z,23.74
2018-10-21T08:37:31.953Z,23.72
2018-10-21T08:38:31.971Z,23.74
2018-10-21T08:39:32.000Z,23.71
2018-10-21T08:40:32.023Z,23.74
2018-10-21T08:41:32.053Z,23.72
2018-10-21T08:42:32.075Z,23.68
2018-10-21T08:43:32.096Z,23.71
2018-10-21T08:44:32.117Z,23.71
2018-10-21T08:45:32.147Z,23.77
2018-10-21T08:46:32.201Z,23.69
2018-10-21T08:47:32.189Z,23.74
2018-10-21T08:48:32.217Z,23.72
2018-10-21T08:49:32.236Z,23.75
2018-10-21T08:50:32.259Z,23.78
2018-10-21T08:51:32.288Z,23.81
2018-10-21T08:52:32.314Z,23.75
2018-10-21T08:53:32.340Z,23.69
2018-10-21T08:54:32.362Z,23.78
2018-10-21T08:55:32.385Z,23.82
2018-10-21T08:56:32.412Z,23.69
2018-10-21T08:57:32.433Z,23.69
2018-10-21T08:58:32.462Z,23.74
2018-10-21T08:59:32.476Z,23.81
2018-10-21T09:00:32.500Z,23.77
2018-10-21T09:01:32.533Z,23.75
2018-10-21T09:02:32.553Z,23.81
2018-10-21T09:03:32.572Z,23.86
2018-10-21T09:04:32.604Z,23.86
2018-10-21T09:05:32.622Z,23.78
2018-10-21T09:06:32.647Z,23.84
2018-10-21T09:07:32.675Z,23.81
2018-10-21T09:08:32.701Z,23.81
2018-10-21T09:09:32.717Z,23.84
2018-10-21T09:10:32.815Z,23.87
2018-10-21T09:11:32.773Z,23.81
2018-10-21T09:12:32.798Z,23.81
2018-10-21T09:13:32.820Z,23.84
2018-10-21T09:14:32.848Z,23.79
2018-10-21T09:15:32.943Z,23.86
2018-10-21T09:16:32.967Z,23.81
2018-10-21T09:17:32.918Z,23.87
2018-10-21T09:18:32.945Z,23.86
2018-10-21T09:19:32.962Z,23.81
2018-10-21T09:20:32.987Z,23.84
2018-10-21T09:21:33.009Z,23.82
2018-10-21T09:22:33.037Z,23.87
2018-10-21T09:23:33.082Z,23.86
2018-10-21T09:24:33.086Z,23.89
2018-10-21T09:25:33.110Z,23.79
2018-10-21T09:26:33.132Z,23.92
2018-10-21T09:27:33.164Z,23.86
2018-10-21T09:28:33.186Z,23.93
2018-10-21T09:29:33.207Z,23.86
2018-10-21T09:30:33.233Z,23.93
2018-10-21T09:31:33.252Z,23.86
2018-10-21T09:32:33.280Z,23.87
2018-10-21T09:33:33.309Z,23.90
2018-10-21T09:34:33.336Z,23.87
2018-10-21T09:35:33.357Z,23.79
2018-10-21T09:36:33.375Z,23.96
2018-10-21T09:37:33.402Z,23.84
2018-10-21T09:38:33.423Z,23.96
2018-10-21T09:39:33.450Z,23.93
2018-10-21T09:40:33.485Z,23.92
2018-10-21T09:41:33.497Z,23.93
2018-10-21T09:42:33.521Z,23.99
2018-10-21T09:43:33.553Z,23.93
2018-10-21T09:44:33.577Z,23.97
2018-10-21T09:45:33.598Z,23.96
2018-10-21T09:46:33.621Z,23.96
2018-10-21T09:47:33.641Z,23.99
2018-10-21T09:48:33.670Z,23.96
2018-10-21T09:49:33.695Z,23.99
2018-10-21T09:50:33.717Z,23.96
2018-10-21T09:51:33.751Z,23.89
2018-10-21T09:52:33.766Z,23.99
2018-10-21T09:53:33.787Z,23.97
2018-10-21T09:54:33.824Z,23.96
2018-10-21T09:55:33.840Z,23.97
2018-10-21T09:56:33.867Z,23.94
2018-10-21T09:57:33.899Z,24.00
2018-10-21T09:58:33.979Z,24.08
2018-10-21T09:59:33.937Z,24.00
2018-10-21T10:00:33.964Z,23.99
2018-10-21T10:01:33.989Z,24.02
2018-10-21T10:02:34.018Z,24.00
2018-10-21T10:03:34.032Z,24.06
2018-10-21T10:04:34.061Z,24.02
2018-10-21T10:05:34.090Z,23.93
2018-10-21T10:06:34.107Z,23.99
2018-10-21T10:07:34.134Z,23.99
2018-10-21T10:08:34.157Z,24.02
2018-10-21T10:09:34.176Z,24.12
2018-10-21T10:10:34.200Z,24.00
2018-10-21T10:11:34.234Z,24.04
2018-10-21T10:12:34.256Z,24.02
2018-10-21T10:13:34.277Z,23.99
2018-10-21T10:14:34.307Z,24.06
2018-10-21T10:15:34.328Z,24.00
2018-10-21T10:16:34.355Z,24.00
2018-10-21T10:17:34.448Z,24.04
2018-10-21T10:18:34.399Z,24.00
2018-10-21T10:19:34.419Z,24.02
2018-10-21T10:20:34.452Z,24.00
2018-10-21T10:21:34.475Z,24.15
2018-10-21T10:22:34.498Z,24.06
2018-10-21T10:23:34.655Z,24.14
2018-10-21T10:24:34.546Z,24.12
2018-10-21T10:25:34.571Z,24.15
2018-10-21T10:26:34.597Z,24.06
2018-10-21T10:27:34.622Z,24.11
2018-10-21T10:28:34.646Z,24.11
2018-10-21T10:29:34.665Z,24.02
2018-10-21T10:30:34.742Z,24.16
2018-10-21T10:31:34.719Z,24.04
2018-10-21T10:32:34.745Z,24.06
2018-10-21T10:33:34.768Z,24.05
2018-10-21T10:34:34.798Z,24.02
2018-10-21T10:35:34.813Z,24.09
2018-10-21T10:36:34.839Z,24.02
2018-10-21T10:37:34.866Z,24.15
2018-10-21T10:38:34.888Z,24.04
2018-10-21T10:39:34.909Z,24.09
2018-10-21T10:40:34.938Z,24.09
2018-10-21T10:41:34.976Z,24.06
2018-10-21T10:42:34.989Z,24.09
2018-10-21T10:43:35.013Z,24.04
2018-10-21T10:44:35.040Z,24.00
2018-10-21T10:45:35.063Z,24.11
2018-10-21T10:46:35.081Z,24.05
2018-10-21T10:47:35.109Z,24.14
2018-10-21T10:48:35.137Z,24.09
2018-10-21T10:49:35.162Z,24.08
2018-10-21T10:50:35.184Z,24.14
2018-10-21T10:51:35.206Z,24.14
2018-10-21T10:52:35.230Z,24.16
2018-10-21T10:53:35.255Z,24.11
2018-10-21T10:54:35.285Z,24.14
2018-10-21T10:55:35.303Z,24.16
2018-10-21T10:56:35.327Z,24.12
2018-10-21T10:57:35.355Z,24.16
2018-10-21T10:58:35.376Z,24.21
2018-10-21T10:59:35.489Z,24.23
2018-10-21T11:00:35.428Z,24.21
2018-10-21T11:01:35.453Z,24.19
2018-10-21T11:02:35.475Z,24.24
2018-10-21T11:03:35.505Z,24.24
2018-10-21T11:04:35.527Z,24.24
2018-10-21T11:05:35.549Z,24.16
2018-10-21T11:06:35.581Z,24.23
2018-10-21T11:07:35.594Z,24.29
2018-10-21T11:08:35.624Z,24.26
2018-10-21T11:09:35.646Z,24.24
2018-10-21T11:10:35.673Z,24.19
2018-10-21T11:11:35.697Z,24.23
2018-10-21T11:12:35.720Z,24.29
2018-10-21T11:13:35.744Z,24.24
2018-10-21T11:14:35.796Z,24.26
2018-10-21T11:15:35.797Z,24.24
2018-10-21T11:16:35.826Z,24.30
2018-10-21T11:17:35.839Z,24.27
2018-10-21T11:18:35.871Z,24.29
2018-10-21T11:19:35.894Z,24.30
2018-10-21T11:20:35.920Z,24.26
2018-10-21T11:21:35.948Z,24.24
2018-10-21T11:22:36.024Z,24.24
2018-10-21T11:23:35.993Z,24.27
2018-10-21T11:24:36.016Z,24.27
2018-10-21T11:25:36.039Z,24.29
2018-10-21T11:26:36.066Z,24.29
2018-10-21T11:27:36.088Z,24.33
2018-10-21T11:28:36.117Z,24.37
2018-10-21T11:29:36.134Z,24.34
2018-10-21T11:30:36.160Z,24.31
2018-10-21T11:31:36.195Z,24.31
2018-10-21T11:32:36.217Z,24.39
2018-10-21T11:33:36.236Z,24.42
2018-10-21T11:34:36.266Z,24.42
2018-10-21T11:35:36.290Z,24.48
2018-10-21T11:36:36.368Z,24.45
2018-10-21T11:37:36.419Z,24.34
2018-10-21T11:38:36.362Z,24.45
2018-10-21T11:39:36.390Z,24.44
2018-10-21T11:40:36.409Z,24.49
2018-10-21T11:41:36.437Z,24.41
2018-10-21T11:42:36.463Z,24.44
2018-10-21T11:43:36.482Z,24.42
2018-10-21T11:44:36.502Z,24.41
2018-10-21T11:45:36.543Z,24.41
2018-10-21T11:46:36.559Z,24.46
2018-10-21T11:47:36.587Z,24.45
2018-10-21T11:48:36.617Z,24.41
2018-10-21T11:49:36.629Z,24.39
2018-10-21T11:50:36.658Z,24.31
2018-10-21T11:51:36.686Z,24.45
2018-10-21T11:52:36.776Z,24.42
2018-10-21T11:53:36.731Z,24.34
2018-10-21T11:54:36.758Z,24.33
2018-10-21T11:55:36.778Z,24.33
2018-10-21T11:56:36.815Z,24.29
2018-10-21T11:57:36.830Z,24.30
2018-10-21T11:58:36.855Z,24.41
2018-10-21T11:59:36.878Z,24.31
2018-10-21T12:00:36.902Z,24.31
2018-10-21T12:01:36.928Z,24.33
2018-10-21T12:02:36.954Z,24.39
2018-10-21T12:03:36.982Z,24.33
2018-10-21T12:04:37.005Z,24.30
2018-10-21T12:05:37.027Z,24.31
2018-10-21T12:06:37.048Z,24.30
2018-10-21T12:07:37.078Z,24.31
2018-10-21T12:08:37.102Z,24.31
2018-10-21T12:09:37.128Z,24.34
2018-10-21T12:10:37.155Z,24.30
2018-10-21T12:11:37.180Z,24.31
2018-10-21T12:12:37.199Z,24.37
2018-10-21T12:13:37.227Z,24.31
2018-10-21T12:14:37.254Z,24.33
2018-10-21T12:15:37.273Z,24.36
2018-10-21T12:16:37.298Z,24.36
2018-10-21T12:17:37.322Z,24.34
2018-10-21T12:18:37.346Z,24.33
2018-10-21T12:19:37.374Z,24.39
2018-10-21T12:20:37.399Z,24.29
2018-10-21T12:21:37.420Z,24.39
2018-10-21T12:22:37.525Z,24.33
2018-10-21T12:23:37.475Z,24.31
2018-10-21T12:24:37.505Z,24.36
2018-10-21T12:25:37.582Z,24.31
2018-10-21T12:26:37.545Z,24.31
2018-10-21T12:27:37.567Z,24.39
2018-10-21T12:28:37.604Z,24.31
2018-10-21T12:29:37.621Z,24.29
2018-10-21T12:30:37.645Z,24.27
2018-10-21T12:31:37.665Z,24.29
2018-10-21T12:32:37.693Z,24.30
2018-10-21T12:33:37.721Z,24.30
2018-10-21T12:34:37.743Z,24.30
2018-10-21T12:35:37.772Z,24.30
2018-10-21T12:36:37.802Z,24.30
2018-10-21T12:37:37.817Z,24.29
2018-10-21T12:38:37.840Z,24.31
2018-10-21T12:39:37.868Z,24.34
2018-10-21T12:40:37.892Z,24.36
2018-10-21T12:41:37.924Z,24.27
2018-10-21T12:42:37.946Z,24.30
2018-10-21T12:43:37.968Z,24.29
2018-10-21T12:44:37.991Z,24.26
2018-10-21T12:45:38.020Z,24.29
2018-10-21T12:46:38.088Z,24.30
2018-10-21T12:47:38.069Z,24.29
2018-10-21T12:48:38.095Z,24.30
2018-10-21T12:49:38.115Z,24.27
2018-10-21T12:50:38.143Z,24.34
2018-10-21T12:51:38.161Z,24.34
2018-10-21T12:52:38.187Z,24.30